Airfield :
LOGIN :

Register | Disclaimer

   EN    FR    IT 

 










Legend :    VFR   Marginal VFR   IFR   Intensive IFR   Very Intensive IFR
Visi :
Ceiling :
>= 8 km
>= 3000ft
5 to 8 km
1000 to 3000 ft
1500m to 5 km
500 to 1000 ft
800 to 1500m
200 to 500 ft
< 800m
< 200 ft
Symbols :   Thunderstorms  Fog  Heavy snow  Heavy precipitations  Wind > 20 kt
SIGMETs :     Misc.  Thunderstorms  Icing  Turbulence  Mountain Waves  Volcanic Ashes






- Airport Elevation : 1947 ft
- IATA code : OBF


EDMO - Oberpfaffenhofen

CURRENT METAR :
  • 281250Z 25008KT 9999 FEW034 BKN047 02/M03 Q1020

EXPIRED METARs :
  • 281220Z 25010KT 9999 BKN034 02/M03 Q1020
  • 281150Z 26011KT 9999 BKN038 02/M04 Q1020
  • 281120Z 27006KT 9999 SCT032 BKN044 02/M03 Q1020
  • 281050Z 27011KT 9999 SCT026 SCT032 02/M03 Q1020
  • 281020Z 26015KT 9999 FEW020 SCT029 02/M03 Q1020

TAF TAF EDMO
Valid from the 28 at 12:00 until the 28 at 21:00 UTC


281100Z 2812/2821 26012KT 9999 FEW045
BECMG 2813/2815 25007KT
BECMG 2816/2818 18003KT



MET'MAP, your aeronautical weather chart ! - Copyright ORBIFLY December 2007 - Disclaimer

ORBIFLY MET'MAP TEAM :

Programming & Development : Alexandra Zaïnal
Concept & original design : Baudouin d'Aumeries
Assistance for programming : Marc-Olivier Méhu
Technical & hardware support : Manuel Goepfert

Contact : metmap@orbifly.com




SOURCES & CREDITS :

   NOAA